PHSVP EHRD-EHRD
Flight info
| Callsign | PHSVP |
|---|---|
| Flight time | 0h 14m |
| Altitude | 2000 |
| Route | LOCAL VFR |
| Aircraft | PA28/L-S/L |
Departure
| Time | 2026-05-05 13:45 |
|---|---|
| Airport | Rotterdam The Hague Airport (EHRD) |
Arrival
| Time | 2026-05-05 14:00 |
|---|---|
| Airport | Rotterdam The Hague Airport (EHRD) |
| Time | Latitude | Longitude | Altitude | Speed | Heading |
|---|---|---|---|---|---|
| 2026-05-05 13:30 | 51.94918 | 4.42641 | -5 ft | 0 kts | 232° |
| 2026-05-05 13:39 | 51.94939 | 4.42669 | -5 ft | 13 kts | 59° |
| 2026-05-05 13:40 | 51.95008 | 4.42785 | -5 ft | 16 kts | 59° |
| 2026-05-05 13:40 | 51.95077 | 4.42964 | -5 ft | 22 kts | 56° |
| 2026-05-05 13:40 | 51.95157 | 4.43113 | -5 ft | 14 kts | 346° |
| 2026-05-05 13:40 | 51.95195 | 4.43096 | -4 ft | 0 kts | 355° |
| 2026-05-05 13:42 | 51.95230 | 4.43101 | -4 ft | 15 kts | 5° |
| 2026-05-05 13:42 | 51.95331 | 4.43141 | -4 ft | 15 kts | 48° |
| 2026-05-05 13:42 | 51.95378 | 4.43250 | -5 ft | 0 kts | 59° |
| 2026-05-05 13:43 | 51.95408 | 4.43325 | -6 ft | 32 kts | 58° |
| 2026-05-05 13:43 | 51.95637 | 4.43893 | 46 ft | 80 kts | 56° |
| 2026-05-05 13:43 | 51.95980 | 4.44763 | 252 ft | 99 kts | 58° |
| 2026-05-05 13:44 | 51.96477 | 4.45539 | 461 ft | 110 kts | 16° |
| 2026-05-05 13:44 | 51.97207 | 4.45037 | 453 ft | 133 kts | 307° |
| 2026-05-05 13:44 | 51.97278 | 4.43583 | 541 ft | 134 kts | 256° |
| 2026-05-05 13:44 | 51.96917 | 4.42166 | 566 ft | 137 kts | 241° |
| 2026-05-05 13:45 | 51.96417 | 4.40847 | 576 ft | 141 kts | 236° |
| 2026-05-05 13:45 | 51.95873 | 4.39529 | 568 ft | 142 kts | 235° |
| 2026-05-05 13:45 | 51.95171 | 4.38572 | 622 ft | 123 kts | 183° |
| 2026-05-05 13:45 | 51.94528 | 4.39176 | 550 ft | 106 kts | 117° |
| 2026-05-05 13:46 | 51.94483 | 4.40306 | 475 ft | 100 kts | 82° |
| 2026-05-05 13:46 | 51.94654 | 4.41364 | 334 ft | 96 kts | 64° |
| 2026-05-05 13:46 | 51.94992 | 4.42271 | 162 ft | 88 kts | 58° |
| 2026-05-05 13:46 | 51.95308 | 4.43063 | 42 ft | 84 kts | 57° |
| 2026-05-05 13:47 | 51.95605 | 4.43811 | -3 ft | 67 kts | 57° |
| 2026-05-05 13:47 | 51.95875 | 4.44483 | 41 ft | 85 kts | 56° |
| 2026-05-05 13:47 | 51.96228 | 4.45292 | 290 ft | 94 kts | 45° |
| 2026-05-05 13:47 | 51.96848 | 4.45230 | 500 ft | 111 kts | 317° |
| 2026-05-05 13:48 | 51.97459 | 4.44437 | 555 ft | 116 kts | 354° |
| 2026-05-05 13:48 | 51.98079 | 4.45108 | 565 ft | 122 kts | 76° |
| 2026-05-05 13:48 | 51.97612 | 4.46128 | 634 ft | 130 kts | 170° |
| 2026-05-05 13:48 | 51.96927 | 4.45311 | 646 ft | 134 kts | 244° |
| 2026-05-05 13:49 | 51.96492 | 4.43992 | 629 ft | 131 kts | 245° |
| 2026-05-05 13:49 | 51.96697 | 4.42700 | 615 ft | 126 kts | 325° |
| 2026-05-05 13:49 | 51.97481 | 4.42767 | 559 ft | 124 kts | 45° |
| 2026-05-05 13:49 | 51.97474 | 4.44047 | 530 ft | 128 kts | 134° |
| 2026-05-05 13:50 | 51.96675 | 4.43900 | 396 ft | 128 kts | 233° |
| 2026-05-05 13:50 | 51.96755 | 4.42778 | 594 ft | 100 kts | 326° |
| 2026-05-05 13:50 | 51.97318 | 4.42959 | 610 ft | 94 kts | 65° |
| 2026-05-05 13:50 | 51.97037 | 4.43823 | 572 ft | 105 kts | 160° |
| 2026-05-05 13:51 | 51.96357 | 4.43442 | 510 ft | 115 kts | 231° |
| 2026-05-05 13:51 | 51.96004 | 4.42292 | 520 ft | 112 kts | 247° |
| 2026-05-05 13:51 | 51.95637 | 4.41129 | 518 ft | 114 kts | 240° |
| 2026-05-05 13:51 | 51.95061 | 4.40554 | 569 ft | 97 kts | 161° |
| 2026-05-05 13:52 | 51.94777 | 4.41427 | 386 ft | 96 kts | 85° |
| 2026-05-05 13:52 | 51.95051 | 4.42400 | 162 ft | 95 kts | 58° |
| 2026-05-05 13:52 | 51.95408 | 4.43277 | 140 ft | 95 kts | 57° |
| 2026-05-05 13:52 | 51.95744 | 4.44213 | 390 ft | 94 kts | 59° |
| 2026-05-05 13:53 | 51.96142 | 4.44998 | 548 ft | 92 kts | 25° |
| 2026-05-05 13:53 | 51.96748 | 4.44644 | 567 ft | 109 kts | 303° |
| 2026-05-05 13:53 | 51.96648 | 4.43433 | 541 ft | 120 kts | 231° |
| 2026-05-05 13:53 | 51.96126 | 4.42398 | 586 ft | 116 kts | 232° |
| 2026-05-05 13:54 | 51.95683 | 4.41322 | 601 ft | 115 kts | 239° |
| 2026-05-05 13:54 | 51.95275 | 4.40242 | 597 ft | 113 kts | 237° |
| 2026-05-05 13:54 | 51.94660 | 4.39744 | 594 ft | 101 kts | 166° |
| 2026-05-05 13:54 | 51.94257 | 4.40529 | 538 ft | 93 kts | 89° |
| 2026-05-05 13:55 | 51.94619 | 4.41370 | 379 ft | 93 kts | 51° |
| 2026-05-05 13:55 | 51.94950 | 4.42206 | 231 ft | 85 kts | 53° |
| 2026-05-05 13:55 | 51.95276 | 4.42999 | 94 ft | 84 kts | 56° |
| 2026-05-05 13:55 | 51.95584 | 4.43760 | 1 ft | 72 kts | 57° |
| 2026-05-05 13:56 | 51.95820 | 4.44353 | 8 ft | 68 kts | 57° |
| 2026-05-05 13:56 | 51.96110 | 4.45088 | 213 ft | 87 kts | 56° |
| 2026-05-05 13:56 | 51.96594 | 4.45767 | 441 ft | 104 kts | 9° |
| 2026-05-05 13:56 | 51.97195 | 4.45099 | 699 ft | 119 kts | 294° |
| 2026-05-05 13:57 | 51.96984 | 4.43867 | 772 ft | 118 kts | 230° |
| 2026-05-05 13:57 | 51.96481 | 4.42828 | 695 ft | 115 kts | 233° |
| 2026-05-05 13:57 | 51.96052 | 4.41786 | 676 ft | 105 kts | 238° |
| 2026-05-05 13:57 | 51.95675 | 4.40777 | 653 ft | 105 kts | 238° |
| 2026-05-05 13:58 | 51.95260 | 4.39847 | 686 ft | 99 kts | 230° |
| 2026-05-05 13:58 | 51.94744 | 4.39092 | 675 ft | 100 kts | 201° |
| 2026-05-05 13:58 | 51.94122 | 4.39260 | 673 ft | 91 kts | 132° |
| 2026-05-05 13:58 | 51.94095 | 4.40134 | 631 ft | 87 kts | 48° |
| 2026-05-05 13:59 | 51.94800 | 4.41775 | 288 ft | 84 kts | 58° |
| 2026-05-05 13:59 | 51.95105 | 4.42551 | 118 ft | 81 kts | 59° |
| 2026-05-05 14:00 | 51.95653 | 4.43932 | -5 ft | 53 kts | 57° |
| 2026-05-05 14:00 | 51.95752 | 4.44179 | -5 ft | 26 kts | 57° |
| 2026-05-05 14:00 | 51.95790 | 4.44279 | -6 ft | 7 kts | 55° |
| 2026-05-05 14:00 | 51.95940 | 4.44653 | 0 ft | 69 kts | 56° |
| 2026-05-05 14:01 | 51.96222 | 4.45417 | 234 ft | 83 kts | 61° |
| 2026-05-05 14:01 | 51.96590 | 4.46117 | 503 ft | 84 kts | 21° |
| 2026-05-05 14:01 | 51.97106 | 4.45656 | 504 ft | 104 kts | 294° |
| 2026-05-05 14:01 | 51.96902 | 4.44595 | 541 ft | 104 kts | 231° |
| 2026-05-05 14:02 | 51.96469 | 4.43701 | 524 ft | 98 kts | 233° |
| 2026-05-05 14:02 | 51.96073 | 4.42806 | 489 ft | 97 kts | 234° |
| 2026-05-05 14:02 | 51.95691 | 4.41922 | 435 ft | 91 kts | 235° |
| 2026-05-05 14:02 | 51.95344 | 4.41097 | 437 ft | 87 kts | 237° |
| 2026-05-05 14:03 | 51.95012 | 4.40322 | 442 ft | 80 kts | 229° |
| 2026-05-05 14:03 | 51.94512 | 4.40342 | 391 ft | 83 kts | 121° |
| 2026-05-05 14:03 | 51.94572 | 4.41192 | 329 ft | 79 kts | 54° |
| 2026-05-05 14:03 | 51.94869 | 4.41950 | 238 ft | 79 kts | 57° |
| 2026-05-05 14:04 | 51.95167 | 4.42709 | 105 ft | 82 kts | 57° |
| 2026-05-05 14:04 | 51.95456 | 4.43440 | 2 ft | 68 kts | 57° |
| 2026-05-05 14:04 | 51.95678 | 4.43996 | -4 ft | 61 kts | 57° |
| 2026-05-05 14:04 | 51.95966 | 4.44750 | 133 ft | 89 kts | 59° |
| 2026-05-05 14:05 | 51.96336 | 4.45575 | 408 ft | 89 kts | 35° |
| 2026-05-05 14:05 | 51.96933 | 4.45444 | 508 ft | 102 kts | 313° |
| 2026-05-05 14:05 | 51.96903 | 4.44355 | 529 ft | 109 kts | 233° |
| 2026-05-05 14:05 | 51.96433 | 4.43371 | 561 ft | 114 kts | 232° |
| 2026-05-05 14:06 | 51.95979 | 4.42337 | 634 ft | 108 kts | 236° |
| 2026-05-05 14:06 | 51.95539 | 4.41311 | 572 ft | 110 kts | 235° |
| 2026-05-05 14:06 | 51.94969 | 4.40581 | 528 ft | 106 kts | 184° |
| 2026-05-05 14:06 | 51.94483 | 4.41239 | 505 ft | 94 kts | 92° |
| 2026-05-05 14:07 | 51.94872 | 4.42037 | 340 ft | 97 kts | 46° |
| 2026-05-05 14:07 | 51.95250 | 4.42933 | 104 ft | 95 kts | 56° |
| 2026-05-05 14:07 | 51.95588 | 4.43770 | -1 ft | 76 kts | 56° |
| 2026-05-05 14:07 | 51.95843 | 4.44405 | 0 ft | 77 kts | 56° |
| 2026-05-05 14:08 | 51.96167 | 4.45224 | 219 ft | 90 kts | 51° |
| 2026-05-05 14:08 | 51.96789 | 4.45356 | 413 ft | 112 kts | 328° |
| 2026-05-05 14:08 | 51.97117 | 4.44129 | 537 ft | 126 kts | 282° |
| 2026-05-05 14:08 | 51.97301 | 4.42740 | 722 ft | 125 kts | 284° |
| 2026-05-05 14:09 | 51.97423 | 4.41344 | 857 ft | 126 kts | 274° |
| 2026-05-05 14:09 | 51.97417 | 4.40399 | 880 ft | 126 kts | 270° |
| 2026-05-05 14:09 | 51.97367 | 4.38991 | 924 ft | 122 kts | 267° |
| 2026-05-05 14:09 | 51.97254 | 4.37200 | 999 ft | 120 kts | 264° |
| 2026-05-05 14:10 | 51.97182 | 4.36295 | 992 ft | 124 kts | 263° |
| 2026-05-05 14:10 | 51.97039 | 4.34861 | 993 ft | 134 kts | 262° |
| 2026-05-05 14:10 | 51.96892 | 4.33334 | 1013 ft | 139 kts | 264° |
| 2026-05-05 14:10 | 51.96757 | 4.31788 | 1065 ft | 140 kts | 263° |
| 2026-05-05 14:11 | 51.96605 | 4.30240 | 1163 ft | 139 kts | 262° |
| 2026-05-05 14:11 | 51.96514 | 4.28659 | 1150 ft | 141 kts | 267° |
| 2026-05-05 14:11 | 51.96522 | 4.27063 | 1178 ft | 141 kts | 275° |
| 2026-05-05 14:11 | 51.96571 | 4.25474 | 1193 ft | 141 kts | 272° |
| 2026-05-05 14:12 | 51.96579 | 4.23915 | 1239 ft | 134 kts | 270° |
| 2026-05-05 14:12 | 51.96502 | 4.22406 | 1246 ft | 135 kts | 259° |
| 2026-05-05 14:12 | 51.95978 | 4.21174 | 1177 ft | 140 kts | 216° |
| 2026-05-05 14:12 | 51.95084 | 4.20667 | 1205 ft | 136 kts | 180° |
| 2026-05-05 14:13 | 51.94173 | 4.20968 | 1221 ft | 134 kts | 156° |
| 2026-05-05 14:13 | 51.93322 | 4.21634 | 1148 ft | 137 kts | 148° |
| 2026-05-05 14:13 | 51.92538 | 4.22503 | 1078 ft | 137 kts | 139° |
| 2026-05-05 14:13 | 51.91827 | 4.23536 | 1019 ft | 137 kts | 134° |
| 2026-05-05 14:14 | 51.91180 | 4.24660 | 1001 ft | 136 kts | 126° |
| 2026-05-05 14:14 | 51.90664 | 4.25929 | 1020 ft | 135 kts | 116° |
| 2026-05-05 14:14 | 51.90266 | 4.27288 | 1032 ft | 133 kts | 111° |
| 2026-05-05 14:14 | 51.89919 | 4.28688 | 985 ft | 135 kts | 109° |
| 2026-05-05 14:15 | 51.89629 | 4.30133 | 934 ft | 134 kts | 102° |
| 2026-05-05 14:15 | 51.89502 | 4.31623 | 923 ft | 132 kts | 93° |
| 2026-05-05 14:15 | 51.89480 | 4.33095 | 891 ft | 131 kts | 85° |
| 2026-05-05 14:15 | 51.89629 | 4.34539 | 850 ft | 130 kts | 77° |
| 2026-05-05 14:16 | 51.89750 | 4.35992 | 843 ft | 130 kts | 85° |
| 2026-05-05 14:16 | 51.89760 | 4.37448 | 829 ft | 129 kts | 90° |
| 2026-05-05 14:16 | 51.89676 | 4.38884 | 845 ft | 128 kts | 94° |
| 2026-05-05 14:16 | 51.89778 | 4.40324 | 778 ft | 131 kts | 71° |
| 2026-05-05 14:17 | 51.90075 | 4.41685 | 769 ft | 130 kts | 76° |
| 2026-05-05 14:17 | 51.90085 | 4.43164 | 731 ft | 131 kts | 98° |
| 2026-05-05 14:17 | 51.89892 | 4.44579 | 770 ft | 129 kts | 97° |
| 2026-05-05 14:17 | 51.89898 | 4.46024 | 807 ft | 129 kts | 80° |
| 2026-05-05 14:18 | 51.90181 | 4.47393 | 850 ft | 126 kts | 64° |
| 2026-05-05 14:18 | 51.90577 | 4.48629 | 1003 ft | 122 kts | 58° |
| 2026-05-05 14:18 | 51.91310 | 4.48943 | 1092 ft | 117 kts | 328° |
| 2026-05-05 14:18 | 51.91396 | 4.47735 | 1117 ft | 120 kts | 230° |
| 2026-05-05 14:19 | 51.90700 | 4.47690 | 1163 ft | 111 kts | 128° |
| 2026-05-05 14:19 | 51.90762 | 4.48724 | 1282 ft | 101 kts | 37° |
| 2026-05-05 14:19 | 51.91426 | 4.48624 | 1431 ft | 106 kts | 329° |
| 2026-05-05 14:19 | 51.92073 | 4.47961 | 1500 ft | 116 kts | 335° |
| 2026-05-05 14:20 | 51.92809 | 4.47323 | 1571 ft | 123 kts | 334° |
| 2026-05-05 14:20 | 51.93568 | 4.46580 | 1568 ft | 133 kts | 328° |
| 2026-05-05 14:20 | 51.94327 | 4.45712 | 1626 ft | 133 kts | 327° |
| 2026-05-05 14:20 | 51.95102 | 4.44848 | 1597 ft | 137 kts | 328° |
| 2026-05-05 14:21 | 51.95857 | 4.43998 | 1440 ft | 129 kts | 326° |
| 2026-05-05 14:21 | 51.96288 | 4.42762 | 1198 ft | 126 kts | 271° |
| 2026-05-05 14:21 | 51.95956 | 4.41547 | 1064 ft | 116 kts | 233° |
| 2026-05-05 14:21 | 51.95467 | 4.40562 | 923 ft | 108 kts | 229° |
| 2026-05-05 14:22 | 51.94852 | 4.40254 | 806 ft | 92 kts | 152° |
| 2026-05-05 14:22 | 51.94580 | 4.41084 | 612 ft | 87 kts | 83° |
| 2026-05-05 14:22 | 51.94841 | 4.41916 | 389 ft | 82 kts | 59° |
| 2026-05-05 14:22 | 51.95133 | 4.42629 | 176 ft | 72 kts | 54° |
| 2026-05-05 14:23 | 51.95408 | 4.43315 | 34 ft | 72 kts | 57° |
| 2026-05-05 14:23 | 51.95653 | 4.43935 | -5 ft | 56 kts | 57° |
| 2026-05-05 14:23 | 51.95887 | 4.44531 | 93 ft | 75 kts | 58° |
| 2026-05-05 14:23 | 51.96232 | 4.45235 | 353 ft | 87 kts | 30° |
| 2026-05-05 14:24 | 51.96809 | 4.44902 | 509 ft | 111 kts | 299° |
| 2026-05-05 14:24 | 51.96647 | 4.43731 | 595 ft | 116 kts | 227° |
| 2026-05-05 14:24 | 51.96107 | 4.42728 | 569 ft | 118 kts | 232° |
| 2026-05-05 14:24 | 51.95638 | 4.41704 | 550 ft | 108 kts | 232° |
| 2026-05-05 14:25 | 51.95175 | 4.40820 | 571 ft | 98 kts | 225° |
| 2026-05-05 14:25 | 51.94605 | 4.40742 | 487 ft | 88 kts | 134° |
| 2026-05-05 14:25 | 51.94686 | 4.41530 | 386 ft | 79 kts | 44° |
| 2026-05-05 14:25 | 51.94993 | 4.42288 | 220 ft | 82 kts | 52° |
| 2026-05-05 14:26 | 51.95302 | 4.43050 | 49 ft | 78 kts | 53° |
| 2026-05-05 14:26 | 51.95567 | 4.43719 | -3 ft | 59 kts | 57° |
| 2026-05-05 14:26 | 51.95780 | 4.44255 | 30 ft | 68 kts | 57° |
| 2026-05-05 14:26 | 51.96058 | 4.44984 | 258 ft | 81 kts | 54° |
| 2026-05-05 14:27 | 51.96516 | 4.45523 | 520 ft | 93 kts | 359° |
| 2026-05-05 14:27 | 51.96876 | 4.44676 | 750 ft | 106 kts | 264° |
| 2026-05-05 14:27 | 51.96503 | 4.43623 | 680 ft | 110 kts | 235° |
| 2026-05-05 14:27 | 51.96053 | 4.42616 | 578 ft | 110 kts | 233° |
| 2026-05-05 14:28 | 51.95616 | 4.41630 | 482 ft | 105 kts | 234° |
| 2026-05-05 14:28 | 51.95153 | 4.40872 | 476 ft | 87 kts | 191° |
| 2026-05-05 14:28 | 51.94772 | 4.41391 | 416 ft | 78 kts | 89° |
| 2026-05-05 14:28 | 51.94961 | 4.42195 | 241 ft | 77 kts | 56° |
| 2026-05-05 14:29 | 51.95258 | 4.42944 | 82 ft | 80 kts | 55° |
| 2026-05-05 14:29 | 51.95547 | 4.43668 | -2 ft | 67 kts | 57° |
| 2026-05-05 14:29 | 51.95756 | 4.44192 | -5 ft | 46 kts | 58° |
| 2026-05-05 14:29 | 51.95896 | 4.44542 | -7 ft | 24 kts | 59° |
| 2026-05-05 14:30 | 51.95897 | 4.44688 | -5 ft | 12 kts | 143° |
| 2026-05-05 14:30 | 51.95818 | 4.44759 | -5 ft | 14 kts | 177° |
| 2026-05-05 14:30 | 51.95745 | 4.44657 | -5 ft | 17 kts | 235° |
| 2026-05-05 14:30 | 51.95660 | 4.44444 | -5 ft | 26 kts | 237° |
| 2026-05-05 14:31 | 51.95557 | 4.44188 | -4 ft | 28 kts | 236° |
| 2026-05-05 14:31 | 51.95451 | 4.43922 | -5 ft | 29 kts | 237° |
| 2026-05-05 14:31 | 51.95343 | 4.43652 | -5 ft | 29 kts | 237° |
| 2026-05-05 14:31 | 51.95236 | 4.43382 | -5 ft | 27 kts | 238° |
| 2026-05-05 14:32 | 51.95146 | 4.43147 | -5 ft | 24 kts | 244° |
| 2026-05-05 14:32 | 51.95058 | 4.42913 | -5 ft | 25 kts | 237° |
| 2026-05-05 14:32 | 51.94981 | 4.42726 | -5 ft | 10 kts | 208° |
| 2026-05-05 14:32 | 51.94911 | 4.42687 | -5 ft | 12 kts | 233° |
| 2026-05-05 14:33 | 51.94909 | 4.42650 | -5 ft | 4 kts | 56° |
| 2026-05-05 14:33 | 51.94909 | 4.42652 | -5 ft | 0 kts | 56° |